Bradshaw, West Virginia
Current Conditions -  °F | °C
As of 10:35 PM on Sunday 23 Nov 2014 (Local Time) from KJFZ Reporting Station
Scattered Clouds Scattered Clouds  
Wind Chill: 58°   Ceiling: Unl
Heat Index: 58°   Visibility: 10mi
Dew Point: 51°   Wind: 16mph
Humidity: 78%   Direction: 160°SSE
Pressure: 29.61"   Gusts: 29mph
Location:  37.35°N, 81.8°W
Report Text: KJFZ 240335Z AUTO 16014G25KT 120V200 10SM SCT028 14/10 A2961 RMK AO2 T01420104
Loading
Personal Weather Stations






























Interactive Weather Map New forecast layout! Learn more

10-Day Weather Forecast

Advertisements
Track Severe Weather on mobile